< < Back
Terminal Aerodrome Forecast


Current Version              Previous Versions:   1  2  3  4  5  6  7  8  9  

Terminal Aerodrome Forecast

285
FTUS42 KMLB 252107 AAA
TAFMCO
TAF AMD
KMCO 252107Z 2521/2618 05013G19KT P6SM SCT045
     FM260000 05009KT P6SM FEW040 SCT250
     FM260300 03005KT P6SM FEW035 SCT250
     FM261400 06010KT P6SM SCT030=

Latest METAR

427
SAUS70 KWBC 250000 RRX
MTRMCO
METAR KMCO 252253Z 05016KT 10SM SCT037 SCT300 30/21 A3001 RMK AO2 SLP160
T03000211


USA.gov is the U.S. government's official web portal to all federal, state and local government web resources and services.